<?xml version="1.0" encoding="UTF-8" standalone="no" ?>
<gpx xmlns="http://www.topografix.com/GPX/1/1" xmlns:xsi="http://www.w3.org/2001/XMLSchema-instance" xsi:schemaLocation="http://www.topografix.com/GPX/1/1 http://www.topografix.com/GPX/1/1/gpx.xsd" version="1.1" creator="VisuGPX - https://www.visugpx.com">
  <metadata>
    <name>Course à pied en soirée</name>
  </metadata>
  <trk>
    <name><![CDATA[Course à pied en soirée_1]]></name>
    <trkseg>
      <trkpt lat="48.68585" lon="7.15304">
        <ele>383.8</ele>
        <time>2023-11-10T17:05:07Z</time>
      </trkpt>
      <trkpt lat="48.68582" lon="7.15299">
        <ele>383.8</ele>
        <time>2023-11-10T17:05:10Z</time>
      </trkpt>
      <trkpt lat="48.68575" lon="7.15274">
        <ele>383.7</ele>
        <time>2023-11-10T17:05:21Z</time>
      </trkpt>
      <trkpt lat="48.68563" lon="7.15251">
        <ele>384.6</ele>
        <time>2023-11-10T17:05:29Z</time>
      </trkpt>
      <trkpt lat="48.68548" lon="7.15232">
        <ele>385.4</ele>
        <time>2023-11-10T17:05:35Z</time>
      </trkpt>
      <trkpt lat="48.68537" lon="7.15208">
        <ele>386.1</ele>
        <time>2023-11-10T17:05:43Z</time>
      </trkpt>
      <trkpt lat="48.68526" lon="7.15184">
        <ele>386.6</ele>
        <time>2023-11-10T17:05:51Z</time>
      </trkpt>
      <trkpt lat="48.68513" lon="7.15161">
        <ele>386.8</ele>
        <time>2023-11-10T17:06:00Z</time>
      </trkpt>
      <trkpt lat="48.685" lon="7.15137">
        <ele>386.9</ele>
        <time>2023-11-10T17:06:09Z</time>
      </trkpt>
      <trkpt lat="48.68492" lon="7.1511">
        <ele>386.1</ele>
        <time>2023-11-10T17:06:19Z</time>
      </trkpt>
      <trkpt lat="48.68489" lon="7.15083">
        <ele>385.3</ele>
        <time>2023-11-10T17:06:27Z</time>
      </trkpt>
      <trkpt lat="48.68481" lon="7.15054">
        <ele>384.4</ele>
        <time>2023-11-10T17:06:35Z</time>
      </trkpt>
      <trkpt lat="48.68472" lon="7.15028">
        <ele>383.6</ele>
        <time>2023-11-10T17:06:43Z</time>
      </trkpt>
      <trkpt lat="48.68456" lon="7.15009">
        <ele>382.8</ele>
        <time>2023-11-10T17:06:51Z</time>
      </trkpt>
      <trkpt lat="48.68438" lon="7.14996">
        <ele>382.1</ele>
        <time>2023-11-10T17:07:00Z</time>
      </trkpt>
      <trkpt lat="48.68421" lon="7.14982">
        <ele>381.2</ele>
        <time>2023-11-10T17:07:08Z</time>
      </trkpt>
      <trkpt lat="48.68403" lon="7.14974">
        <ele>381.5</ele>
        <time>2023-11-10T17:07:20Z</time>
      </trkpt>
      <trkpt lat="48.68384" lon="7.14974">
        <ele>383.2</ele>
        <time>2023-11-10T17:07:31Z</time>
      </trkpt>
      <trkpt lat="48.68366" lon="7.14981">
        <ele>385.4</ele>
        <time>2023-11-10T17:07:40Z</time>
      </trkpt>
      <trkpt lat="48.68348" lon="7.14988">
        <ele>387.4</ele>
        <time>2023-11-10T17:07:50Z</time>
      </trkpt>
      <trkpt lat="48.68336" lon="7.1499">
        <ele>388.1</ele>
        <time>2023-11-10T17:07:55Z</time>
      </trkpt>
      <trkpt lat="48.68324" lon="7.14969">
        <ele>387.9</ele>
        <time>2023-11-10T17:08:01Z</time>
      </trkpt>
      <trkpt lat="48.6831" lon="7.14949">
        <ele>387.7</ele>
        <time>2023-11-10T17:08:07Z</time>
      </trkpt>
      <trkpt lat="48.68301" lon="7.14922">
        <ele>387.4</ele>
        <time>2023-11-10T17:08:14Z</time>
      </trkpt>
      <trkpt lat="48.6829" lon="7.14899">
        <ele>387.2</ele>
        <time>2023-11-10T17:08:21Z</time>
      </trkpt>
      <trkpt lat="48.68283" lon="7.14872">
        <ele>386.9</ele>
        <time>2023-11-10T17:08:28Z</time>
      </trkpt>
      <trkpt lat="48.68279" lon="7.14845">
        <ele>386.7</ele>
        <time>2023-11-10T17:08:35Z</time>
      </trkpt>
      <trkpt lat="48.68273" lon="7.14817">
        <ele>386.4</ele>
        <time>2023-11-10T17:08:42Z</time>
      </trkpt>
      <trkpt lat="48.68268" lon="7.14788">
        <ele>386.2</ele>
        <time>2023-11-10T17:08:49Z</time>
      </trkpt>
      <trkpt lat="48.68264" lon="7.14761">
        <ele>385.9</ele>
        <time>2023-11-10T17:08:55Z</time>
      </trkpt>
      <trkpt lat="48.68258" lon="7.14735">
        <ele>385.7</ele>
        <time>2023-11-10T17:09:01Z</time>
      </trkpt>
      <trkpt lat="48.6825" lon="7.1471">
        <ele>385.4</ele>
        <time>2023-11-10T17:09:07Z</time>
      </trkpt>
      <trkpt lat="48.68246" lon="7.14683">
        <ele>385.2</ele>
        <time>2023-11-10T17:09:13Z</time>
      </trkpt>
      <trkpt lat="48.68239" lon="7.14654">
        <ele>384.9</ele>
        <time>2023-11-10T17:09:20Z</time>
      </trkpt>
      <trkpt lat="48.68233" lon="7.14625">
        <ele>384.7</ele>
        <time>2023-11-10T17:09:27Z</time>
      </trkpt>
      <trkpt lat="48.68227" lon="7.14596">
        <ele>384.4</ele>
        <time>2023-11-10T17:09:34Z</time>
      </trkpt>
      <trkpt lat="48.68222" lon="7.14569">
        <ele>384.2</ele>
        <time>2023-11-10T17:09:41Z</time>
      </trkpt>
      <trkpt lat="48.68213" lon="7.14542">
        <ele>383.9</ele>
        <time>2023-11-10T17:09:48Z</time>
      </trkpt>
      <trkpt lat="48.68207" lon="7.14513">
        <ele>383.7</ele>
        <time>2023-11-10T17:09:55Z</time>
      </trkpt>
      <trkpt lat="48.68202" lon="7.14484">
        <ele>383.4</ele>
        <time>2023-11-10T17:10:02Z</time>
      </trkpt>
      <trkpt lat="48.68195" lon="7.14455">
        <ele>383.1</ele>
        <time>2023-11-10T17:10:09Z</time>
      </trkpt>
      <trkpt lat="48.68188" lon="7.14427">
        <ele>382.9</ele>
        <time>2023-11-10T17:10:16Z</time>
      </trkpt>
      <trkpt lat="48.68183" lon="7.14398">
        <ele>382.6</ele>
        <time>2023-11-10T17:10:24Z</time>
      </trkpt>
      <trkpt lat="48.68178" lon="7.14369">
        <ele>382</ele>
        <time>2023-11-10T17:10:32Z</time>
      </trkpt>
      <trkpt lat="48.6817" lon="7.14343">
        <ele>381.4</ele>
        <time>2023-11-10T17:10:39Z</time>
      </trkpt>
      <trkpt lat="48.68163" lon="7.14317">
        <ele>380.9</ele>
        <time>2023-11-10T17:10:46Z</time>
      </trkpt>
      <trkpt lat="48.68155" lon="7.14289">
        <ele>380.3</ele>
        <time>2023-11-10T17:10:54Z</time>
      </trkpt>
      <trkpt lat="48.68153" lon="7.1426">
        <ele>379.7</ele>
        <time>2023-11-10T17:11:01Z</time>
      </trkpt>
      <trkpt lat="48.68143" lon="7.14235">
        <ele>379.1</ele>
        <time>2023-11-10T17:11:09Z</time>
      </trkpt>
      <trkpt lat="48.68135" lon="7.1421">
        <ele>378.6</ele>
        <time>2023-11-10T17:11:16Z</time>
      </trkpt>
      <trkpt lat="48.68128" lon="7.14183">
        <ele>378</ele>
        <time>2023-11-10T17:11:23Z</time>
      </trkpt>
      <trkpt lat="48.68116" lon="7.14157">
        <ele>377.4</ele>
        <time>2023-11-10T17:11:31Z</time>
      </trkpt>
      <trkpt lat="48.68111" lon="7.14129">
        <ele>376.8</ele>
        <time>2023-11-10T17:11:38Z</time>
      </trkpt>
      <trkpt lat="48.68107" lon="7.14101">
        <ele>376.3</ele>
        <time>2023-11-10T17:11:46Z</time>
      </trkpt>
      <trkpt lat="48.68102" lon="7.14074">
        <ele>375.7</ele>
        <time>2023-11-10T17:11:53Z</time>
      </trkpt>
      <trkpt lat="48.681" lon="7.14045">
        <ele>375.1</ele>
        <time>2023-11-10T17:12:01Z</time>
      </trkpt>
      <trkpt lat="48.68097" lon="7.14017">
        <ele>374.6</ele>
        <time>2023-11-10T17:12:09Z</time>
      </trkpt>
      <trkpt lat="48.68093" lon="7.1399">
        <ele>374</ele>
        <time>2023-11-10T17:12:17Z</time>
      </trkpt>
      <trkpt lat="48.68091" lon="7.13961">
        <ele>373.5</ele>
        <time>2023-11-10T17:12:25Z</time>
      </trkpt>
      <trkpt lat="48.68089" lon="7.13933">
        <ele>372.9</ele>
        <time>2023-11-10T17:12:32Z</time>
      </trkpt>
      <trkpt lat="48.68083" lon="7.13908">
        <ele>372.4</ele>
        <time>2023-11-10T17:12:39Z</time>
      </trkpt>
      <trkpt lat="48.68077" lon="7.13878">
        <ele>371.8</ele>
        <time>2023-11-10T17:12:47Z</time>
      </trkpt>
      <trkpt lat="48.68069" lon="7.1385">
        <ele>371.2</ele>
        <time>2023-11-10T17:12:55Z</time>
      </trkpt>
      <trkpt lat="48.6806" lon="7.13823">
        <ele>370.6</ele>
        <time>2023-11-10T17:13:02Z</time>
      </trkpt>
      <trkpt lat="48.6805" lon="7.13796">
        <ele>370</ele>
        <time>2023-11-10T17:13:09Z</time>
      </trkpt>
      <trkpt lat="48.6804" lon="7.13772">
        <ele>369.4</ele>
        <time>2023-11-10T17:13:17Z</time>
      </trkpt>
      <trkpt lat="48.68035" lon="7.13741">
        <ele>368.8</ele>
        <time>2023-11-10T17:13:25Z</time>
      </trkpt>
      <trkpt lat="48.68024" lon="7.13715">
        <ele>368.2</ele>
        <time>2023-11-10T17:13:32Z</time>
      </trkpt>
      <trkpt lat="48.68021" lon="7.13688">
        <ele>367.6</ele>
        <time>2023-11-10T17:13:39Z</time>
      </trkpt>
      <trkpt lat="48.68016" lon="7.13659">
        <ele>367</ele>
        <time>2023-11-10T17:13:47Z</time>
      </trkpt>
      <trkpt lat="48.68009" lon="7.1363">
        <ele>366.4</ele>
        <time>2023-11-10T17:13:54Z</time>
      </trkpt>
      <trkpt lat="48.68004" lon="7.13602">
        <ele>365.9</ele>
        <time>2023-11-10T17:14:01Z</time>
      </trkpt>
      <trkpt lat="48.67997" lon="7.13574">
        <ele>365.3</ele>
        <time>2023-11-10T17:14:09Z</time>
      </trkpt>
      <trkpt lat="48.67995" lon="7.13546">
        <ele>364.7</ele>
        <time>2023-11-10T17:14:18Z</time>
      </trkpt>
      <trkpt lat="48.67989" lon="7.13518">
        <ele>364.1</ele>
        <time>2023-11-10T17:14:26Z</time>
      </trkpt>
      <trkpt lat="48.67981" lon="7.13491">
        <ele>363.6</ele>
        <time>2023-11-10T17:14:34Z</time>
      </trkpt>
      <trkpt lat="48.6797" lon="7.13465">
        <ele>363</ele>
        <time>2023-11-10T17:14:42Z</time>
      </trkpt>
      <trkpt lat="48.67964" lon="7.13439">
        <ele>362.4</ele>
        <time>2023-11-10T17:14:49Z</time>
      </trkpt>
      <trkpt lat="48.67954" lon="7.13414">
        <ele>361.8</ele>
        <time>2023-11-10T17:14:57Z</time>
      </trkpt>
      <trkpt lat="48.67941" lon="7.13395">
        <ele>361.3</ele>
        <time>2023-11-10T17:15:04Z</time>
      </trkpt>
      <trkpt lat="48.67926" lon="7.13376">
        <ele>360.7</ele>
        <time>2023-11-10T17:15:12Z</time>
      </trkpt>
      <trkpt lat="48.67912" lon="7.13355">
        <ele>360.1</ele>
        <time>2023-11-10T17:15:19Z</time>
      </trkpt>
      <trkpt lat="48.67902" lon="7.13332">
        <ele>359.6</ele>
        <time>2023-11-10T17:15:25Z</time>
      </trkpt>
      <trkpt lat="48.67902" lon="7.13304">
        <ele>359</ele>
        <time>2023-11-10T17:15:32Z</time>
      </trkpt>
      <trkpt lat="48.67902" lon="7.13296">
        <ele>358.9</ele>
        <time>2023-11-10T17:15:38Z</time>
      </trkpt>
      <trkpt lat="48.67903" lon="7.133">
        <ele>358.8</ele>
        <time>2023-11-10T17:15:40Z</time>
      </trkpt>
      <trkpt lat="48.67901" lon="7.13307">
        <ele>358.7</ele>
        <time>2023-11-10T17:15:43Z</time>
      </trkpt>
      <trkpt lat="48.67885" lon="7.13288">
        <ele>356.8</ele>
        <time>2023-11-10T17:15:51Z</time>
      </trkpt>
      <trkpt lat="48.67878" lon="7.13272">
        <ele>355.4</ele>
        <time>2023-11-10T17:15:57Z</time>
      </trkpt>
      <trkpt lat="48.67869" lon="7.13262">
        <ele>354</ele>
        <time>2023-11-10T17:17:33Z</time>
      </trkpt>
      <trkpt lat="48.67872" lon="7.13263">
        <ele>353.7</ele>
        <time>2023-11-10T17:17:45Z</time>
      </trkpt>
      <trkpt lat="48.67888" lon="7.13279">
        <ele>356.6</ele>
        <time>2023-11-10T17:18:00Z</time>
      </trkpt>
      <trkpt lat="48.67902" lon="7.13301">
        <ele>358.6</ele>
        <time>2023-11-10T17:18:05Z</time>
      </trkpt>
      <trkpt lat="48.67908" lon="7.13305">
        <ele>358.7</ele>
        <time>2023-11-10T17:18:07Z</time>
      </trkpt>
      <trkpt lat="48.67912" lon="7.13304">
        <ele>358.7</ele>
        <time>2023-11-10T17:18:12Z</time>
      </trkpt>
      <trkpt lat="48.67895" lon="7.13289">
        <ele>357.7</ele>
        <time>2023-11-10T17:18:21Z</time>
      </trkpt>
      <trkpt lat="48.67876" lon="7.13273">
        <ele>355.3</ele>
        <time>2023-11-10T17:18:28Z</time>
      </trkpt>
      <trkpt lat="48.6787" lon="7.13267">
        <ele>354.3</ele>
        <time>2023-11-10T17:18:35Z</time>
      </trkpt>
      <trkpt lat="48.67872" lon="7.13268">
        <ele>354</ele>
        <time>2023-11-10T17:18:37Z</time>
      </trkpt>
      <trkpt lat="48.67886" lon="7.13288">
        <ele>356.9</ele>
        <time>2023-11-10T17:18:51Z</time>
      </trkpt>
      <trkpt lat="48.67902" lon="7.13304">
        <ele>357.1</ele>
        <time>2023-11-10T17:18:56Z</time>
      </trkpt>
      <trkpt lat="48.67909" lon="7.13307">
        <ele>357.2</ele>
        <time>2023-11-10T17:19:00Z</time>
      </trkpt>
      <trkpt lat="48.6791" lon="7.13304">
        <ele>357.2</ele>
        <time>2023-11-10T17:19:03Z</time>
      </trkpt>
      <trkpt lat="48.67895" lon="7.13288">
        <ele>357.4</ele>
        <time>2023-11-10T17:19:17Z</time>
      </trkpt>
      <trkpt lat="48.67877" lon="7.13275">
        <ele>357.5</ele>
        <time>2023-11-10T17:19:25Z</time>
      </trkpt>
      <trkpt lat="48.67874" lon="7.13273">
        <ele>357.6</ele>
        <time>2023-11-10T17:19:28Z</time>
      </trkpt>
      <trkpt lat="48.67876" lon="7.13275">
        <ele>357.6</ele>
        <time>2023-11-10T17:19:33Z</time>
      </trkpt>
      <trkpt lat="48.67894" lon="7.13292">
        <ele>357.7</ele>
        <time>2023-11-10T17:19:48Z</time>
      </trkpt>
      <trkpt lat="48.67909" lon="7.13309">
        <ele>358.4</ele>
        <time>2023-11-10T17:19:54Z</time>
      </trkpt>
      <trkpt lat="48.67909" lon="7.13308">
        <ele>358.4</ele>
        <time>2023-11-10T17:19:58Z</time>
      </trkpt>
      <trkpt lat="48.67906" lon="7.13307">
        <ele>358.4</ele>
        <time>2023-11-10T17:20:01Z</time>
      </trkpt>
      <trkpt lat="48.67901" lon="7.13302">
        <ele>358.5</ele>
        <time>2023-11-10T17:20:05Z</time>
      </trkpt>
      <trkpt lat="48.67885" lon="7.13285">
        <ele>356.7</ele>
        <time>2023-11-10T17:20:14Z</time>
      </trkpt>
      <trkpt lat="48.67873" lon="7.1327">
        <ele>356.4</ele>
        <time>2023-11-10T17:20:23Z</time>
      </trkpt>
      <trkpt lat="48.67875" lon="7.1327">
        <ele>356.3</ele>
        <time>2023-11-10T17:20:28Z</time>
      </trkpt>
      <trkpt lat="48.67877" lon="7.13272">
        <ele>356.3</ele>
        <time>2023-11-10T17:20:30Z</time>
      </trkpt>
      <trkpt lat="48.67894" lon="7.13289">
        <ele>355.8</ele>
        <time>2023-11-10T17:20:44Z</time>
      </trkpt>
      <trkpt lat="48.6791" lon="7.13305">
        <ele>355.4</ele>
        <time>2023-11-10T17:20:50Z</time>
      </trkpt>
      <trkpt lat="48.67913" lon="7.13307">
        <ele>355.3</ele>
        <time>2023-11-10T17:20:56Z</time>
      </trkpt>
      <trkpt lat="48.6791" lon="7.13306">
        <ele>355.3</ele>
        <time>2023-11-10T17:20:58Z</time>
      </trkpt>
      <trkpt lat="48.67905" lon="7.13304">
        <ele>355.1</ele>
        <time>2023-11-10T17:21:02Z</time>
      </trkpt>
      <trkpt lat="48.67891" lon="7.13296">
        <ele>354.8</ele>
        <time>2023-11-10T17:21:12Z</time>
      </trkpt>
      <trkpt lat="48.67887" lon="7.13292">
        <ele>354.7</ele>
        <time>2023-11-10T17:21:15Z</time>
      </trkpt>
      <trkpt lat="48.67872" lon="7.13274">
        <ele>354.2</ele>
        <time>2023-11-10T17:21:26Z</time>
      </trkpt>
      <trkpt lat="48.67872" lon="7.13272">
        <ele>354.2</ele>
        <time>2023-11-10T17:21:27Z</time>
      </trkpt>
      <trkpt lat="48.6787" lon="7.13268">
        <ele>354.1</ele>
        <time>2023-11-10T17:21:30Z</time>
      </trkpt>
      <trkpt lat="48.67868" lon="7.13267">
        <ele>354.1</ele>
        <time>2023-11-10T17:21:32Z</time>
      </trkpt>
      <trkpt lat="48.67869" lon="7.13267">
        <ele>354</ele>
        <time>2023-11-10T17:21:36Z</time>
      </trkpt>
      <trkpt lat="48.6787" lon="7.13268">
        <ele>354</ele>
        <time>2023-11-10T17:21:40Z</time>
      </trkpt>
      <trkpt lat="48.67871" lon="7.13269">
        <ele>354</ele>
        <time>2023-11-10T17:21:42Z</time>
      </trkpt>
      <trkpt lat="48.67888" lon="7.13284">
        <ele>356.9</ele>
        <time>2023-11-10T17:21:54Z</time>
      </trkpt>
      <trkpt lat="48.67905" lon="7.13302">
        <ele>358.4</ele>
        <time>2023-11-10T17:21:59Z</time>
      </trkpt>
      <trkpt lat="48.67914" lon="7.13305">
        <ele>358.3</ele>
        <time>2023-11-10T17:22:03Z</time>
      </trkpt>
      <trkpt lat="48.67913" lon="7.13305">
        <ele>358.3</ele>
        <time>2023-11-10T17:22:06Z</time>
      </trkpt>
      <trkpt lat="48.67908" lon="7.133">
        <ele>358.4</ele>
        <time>2023-11-10T17:22:11Z</time>
      </trkpt>
      <trkpt lat="48.6789" lon="7.13284">
        <ele>357</ele>
        <time>2023-11-10T17:22:22Z</time>
      </trkpt>
      <trkpt lat="48.67875" lon="7.13265">
        <ele>354.6</ele>
        <time>2023-11-10T17:22:31Z</time>
      </trkpt>
      <trkpt lat="48.67873" lon="7.13265">
        <ele>354.3</ele>
        <time>2023-11-10T17:22:34Z</time>
      </trkpt>
      <trkpt lat="48.67874" lon="7.13266">
        <ele>354.2</ele>
        <time>2023-11-10T17:22:36Z</time>
      </trkpt>
      <trkpt lat="48.67889" lon="7.13282">
        <ele>356.8</ele>
        <time>2023-11-10T17:22:51Z</time>
      </trkpt>
      <trkpt lat="48.67905" lon="7.13297">
        <ele>358.6</ele>
        <time>2023-11-10T17:22:56Z</time>
      </trkpt>
      <trkpt lat="48.67918" lon="7.13313">
        <ele>359</ele>
        <time>2023-11-10T17:23:02Z</time>
      </trkpt>
      <trkpt lat="48.67916" lon="7.13309">
        <ele>358.9</ele>
        <time>2023-11-10T17:23:05Z</time>
      </trkpt>
      <trkpt lat="48.67899" lon="7.13295">
        <ele>358.6</ele>
        <time>2023-11-10T17:23:16Z</time>
      </trkpt>
      <trkpt lat="48.67881" lon="7.13279">
        <ele>355.9</ele>
        <time>2023-11-10T17:23:25Z</time>
      </trkpt>
      <trkpt lat="48.67872" lon="7.13266">
        <ele>353.9</ele>
        <time>2023-11-10T17:23:34Z</time>
      </trkpt>
      <trkpt lat="48.67888" lon="7.13282">
        <ele>356.9</ele>
        <time>2023-11-10T17:23:53Z</time>
      </trkpt>
      <trkpt lat="48.67904" lon="7.13298">
        <ele>358.5</ele>
        <time>2023-11-10T17:23:59Z</time>
      </trkpt>
      <trkpt lat="48.67917" lon="7.13308">
        <ele>358.2</ele>
        <time>2023-11-10T17:24:08Z</time>
      </trkpt>
      <trkpt lat="48.67911" lon="7.13305">
        <ele>358.3</ele>
        <time>2023-11-10T17:24:12Z</time>
      </trkpt>
      <trkpt lat="48.67894" lon="7.13293">
        <ele>357.8</ele>
        <time>2023-11-10T17:24:22Z</time>
      </trkpt>
      <trkpt lat="48.67878" lon="7.13278">
        <ele>355.4</ele>
        <time>2023-11-10T17:24:30Z</time>
      </trkpt>
      <trkpt lat="48.67872" lon="7.13271">
        <ele>354.3</ele>
        <time>2023-11-10T17:24:36Z</time>
      </trkpt>
      <trkpt lat="48.67873" lon="7.13274">
        <ele>354.6</ele>
        <time>2023-11-10T17:24:41Z</time>
      </trkpt>
      <trkpt lat="48.67874" lon="7.13276">
        <ele>354.8</ele>
        <time>2023-11-10T17:24:43Z</time>
      </trkpt>
      <trkpt lat="48.67895" lon="7.13288">
        <ele>357.7</ele>
        <time>2023-11-10T17:24:55Z</time>
      </trkpt>
      <trkpt lat="48.67913" lon="7.13303">
        <ele>358.3</ele>
        <time>2023-11-10T17:25:00Z</time>
      </trkpt>
      <trkpt lat="48.6792" lon="7.13304">
        <ele>358.2</ele>
        <time>2023-11-10T17:25:07Z</time>
      </trkpt>
      <trkpt lat="48.6791" lon="7.13304">
        <ele>358.3</ele>
        <time>2023-11-10T17:25:13Z</time>
      </trkpt>
      <trkpt lat="48.67892" lon="7.13292">
        <ele>357.6</ele>
        <time>2023-11-10T17:25:23Z</time>
      </trkpt>
      <trkpt lat="48.67877" lon="7.13273">
        <ele>355.8</ele>
        <time>2023-11-10T17:25:32Z</time>
      </trkpt>
      <trkpt lat="48.67871" lon="7.13268">
        <ele>355.1</ele>
        <time>2023-11-10T17:25:37Z</time>
      </trkpt>
      <trkpt lat="48.67871" lon="7.13269">
        <ele>355</ele>
        <time>2023-11-10T17:25:41Z</time>
      </trkpt>
      <trkpt lat="48.67872" lon="7.1327">
        <ele>354.8</ele>
        <time>2023-11-10T17:25:43Z</time>
      </trkpt>
      <trkpt lat="48.67873" lon="7.13273">
        <ele>354.5</ele>
        <time>2023-11-10T17:25:46Z</time>
      </trkpt>
      <trkpt lat="48.67891" lon="7.13288">
        <ele>357.3</ele>
        <time>2023-11-10T17:25:58Z</time>
      </trkpt>
      <trkpt lat="48.67906" lon="7.13305">
        <ele>358.4</ele>
        <time>2023-11-10T17:26:02Z</time>
      </trkpt>
      <trkpt lat="48.67923" lon="7.13312">
        <ele>358.2</ele>
        <time>2023-11-10T17:26:08Z</time>
      </trkpt>
      <trkpt lat="48.67922" lon="7.13313">
        <ele>358.2</ele>
        <time>2023-11-10T17:26:12Z</time>
      </trkpt>
      <trkpt lat="48.67917" lon="7.13312">
        <ele>358.2</ele>
        <time>2023-11-10T17:26:15Z</time>
      </trkpt>
      <trkpt lat="48.67901" lon="7.13297">
        <ele>358.5</ele>
        <time>2023-11-10T17:26:25Z</time>
      </trkpt>
      <trkpt lat="48.67885" lon="7.13281">
        <ele>356.3</ele>
        <time>2023-11-10T17:26:33Z</time>
      </trkpt>
      <trkpt lat="48.67878" lon="7.13272">
        <ele>355</ele>
        <time>2023-11-10T17:26:39Z</time>
      </trkpt>
      <trkpt lat="48.67877" lon="7.13271">
        <ele>354.9</ele>
        <time>2023-11-10T17:26:41Z</time>
      </trkpt>
      <trkpt lat="48.67877" lon="7.13271">
        <ele>354.8</ele>
        <time>2023-11-10T17:26:43Z</time>
      </trkpt>
      <trkpt lat="48.67896" lon="7.13289">
        <ele>357.8</ele>
        <time>2023-11-10T17:27:02Z</time>
      </trkpt>
      <trkpt lat="48.67914" lon="7.13302">
        <ele>358.7</ele>
        <time>2023-11-10T17:27:07Z</time>
      </trkpt>
      <trkpt lat="48.67923" lon="7.13305">
        <ele>359</ele>
        <time>2023-11-10T17:27:15Z</time>
      </trkpt>
      <trkpt lat="48.67921" lon="7.13305">
        <ele>359.1</ele>
        <time>2023-11-10T17:27:17Z</time>
      </trkpt>
      <trkpt lat="48.67911" lon="7.13307">
        <ele>359.4</ele>
        <time>2023-11-10T17:27:22Z</time>
      </trkpt>
      <trkpt lat="48.67907" lon="7.13319">
        <ele>359.6</ele>
        <time>2023-11-10T17:27:28Z</time>
      </trkpt>
      <trkpt lat="48.67908" lon="7.13322">
        <ele>359.7</ele>
        <time>2023-11-10T17:27:30Z</time>
      </trkpt>
      <trkpt lat="48.67913" lon="7.13327">
        <ele>359.9</ele>
        <time>2023-11-10T17:27:35Z</time>
      </trkpt>
      <trkpt lat="48.67915" lon="7.13328">
        <ele>359.9</ele>
        <time>2023-11-10T17:27:38Z</time>
      </trkpt>
      <trkpt lat="48.67923" lon="7.13351">
        <ele>360.5</ele>
        <time>2023-11-10T17:27:51Z</time>
      </trkpt>
      <trkpt lat="48.67939" lon="7.13366">
        <ele>361</ele>
        <time>2023-11-10T17:28:00Z</time>
      </trkpt>
      <trkpt lat="48.67952" lon="7.13385">
        <ele>361.5</ele>
        <time>2023-11-10T17:28:10Z</time>
      </trkpt>
      <trkpt lat="48.67968" lon="7.13401">
        <ele>362.1</ele>
        <time>2023-11-10T17:28:20Z</time>
      </trkpt>
      <trkpt lat="48.67981" lon="7.13422">
        <ele>362.6</ele>
        <time>2023-11-10T17:28:32Z</time>
      </trkpt>
      <trkpt lat="48.67986" lon="7.1345">
        <ele>363.2</ele>
        <time>2023-11-10T17:28:42Z</time>
      </trkpt>
      <trkpt lat="48.67995" lon="7.13477">
        <ele>363.8</ele>
        <time>2023-11-10T17:28:51Z</time>
      </trkpt>
      <trkpt lat="48.68001" lon="7.13504">
        <ele>364.4</ele>
        <time>2023-11-10T17:28:59Z</time>
      </trkpt>
      <trkpt lat="48.68007" lon="7.13532">
        <ele>364.9</ele>
        <time>2023-11-10T17:29:07Z</time>
      </trkpt>
      <trkpt lat="48.68013" lon="7.1356">
        <ele>365.5</ele>
        <time>2023-11-10T17:29:15Z</time>
      </trkpt>
      <trkpt lat="48.6802" lon="7.13588">
        <ele>366.1</ele>
        <time>2023-11-10T17:29:24Z</time>
      </trkpt>
      <trkpt lat="48.68022" lon="7.13617">
        <ele>366.6</ele>
        <time>2023-11-10T17:29:32Z</time>
      </trkpt>
      <trkpt lat="48.68028" lon="7.13646">
        <ele>367.2</ele>
        <time>2023-11-10T17:29:40Z</time>
      </trkpt>
      <trkpt lat="48.68035" lon="7.13672">
        <ele>367.8</ele>
        <time>2023-11-10T17:29:48Z</time>
      </trkpt>
      <trkpt lat="48.68042" lon="7.137">
        <ele>368.4</ele>
        <time>2023-11-10T17:29:56Z</time>
      </trkpt>
      <trkpt lat="48.68048" lon="7.13726">
        <ele>368.9</ele>
        <time>2023-11-10T17:30:03Z</time>
      </trkpt>
      <trkpt lat="48.68055" lon="7.13754">
        <ele>369.5</ele>
        <time>2023-11-10T17:30:10Z</time>
      </trkpt>
      <trkpt lat="48.6806" lon="7.1378">
        <ele>370</ele>
        <time>2023-11-10T17:30:17Z</time>
      </trkpt>
      <trkpt lat="48.68065" lon="7.13807">
        <ele>370.5</ele>
        <time>2023-11-10T17:30:24Z</time>
      </trkpt>
      <trkpt lat="48.68073" lon="7.13833">
        <ele>371.1</ele>
        <time>2023-11-10T17:30:31Z</time>
      </trkpt>
      <trkpt lat="48.68077" lon="7.13863">
        <ele>371.7</ele>
        <time>2023-11-10T17:30:39Z</time>
      </trkpt>
      <trkpt lat="48.68082" lon="7.1389">
        <ele>372.2</ele>
        <time>2023-11-10T17:30:46Z</time>
      </trkpt>
      <trkpt lat="48.68086" lon="7.13918">
        <ele>372.8</ele>
        <time>2023-11-10T17:30:54Z</time>
      </trkpt>
      <trkpt lat="48.68095" lon="7.13945">
        <ele>373.4</ele>
        <time>2023-11-10T17:31:01Z</time>
      </trkpt>
      <trkpt lat="48.68103" lon="7.13973">
        <ele>374</ele>
        <time>2023-11-10T17:31:08Z</time>
      </trkpt>
      <trkpt lat="48.68109" lon="7.14001">
        <ele>374.5</ele>
        <time>2023-11-10T17:31:15Z</time>
      </trkpt>
      <trkpt lat="48.68112" lon="7.14031">
        <ele>375.1</ele>
        <time>2023-11-10T17:31:23Z</time>
      </trkpt>
      <trkpt lat="48.68117" lon="7.1406">
        <ele>375.7</ele>
        <time>2023-11-10T17:31:31Z</time>
      </trkpt>
      <trkpt lat="48.68123" lon="7.14086">
        <ele>376.3</ele>
        <time>2023-11-10T17:31:38Z</time>
      </trkpt>
      <trkpt lat="48.68135" lon="7.14113">
        <ele>376.9</ele>
        <time>2023-11-10T17:31:45Z</time>
      </trkpt>
      <trkpt lat="48.68142" lon="7.1414">
        <ele>377.4</ele>
        <time>2023-11-10T17:31:52Z</time>
      </trkpt>
      <trkpt lat="48.68147" lon="7.14169">
        <ele>378</ele>
        <time>2023-11-10T17:31:59Z</time>
      </trkpt>
      <trkpt lat="48.68152" lon="7.14196">
        <ele>378.6</ele>
        <time>2023-11-10T17:32:06Z</time>
      </trkpt>
      <trkpt lat="48.68158" lon="7.14225">
        <ele>379.2</ele>
        <time>2023-11-10T17:32:13Z</time>
      </trkpt>
      <trkpt lat="48.68169" lon="7.14251">
        <ele>379.8</ele>
        <time>2023-11-10T17:32:20Z</time>
      </trkpt>
      <trkpt lat="48.68175" lon="7.14278">
        <ele>380.3</ele>
        <time>2023-11-10T17:32:27Z</time>
      </trkpt>
      <trkpt lat="48.68179" lon="7.14306">
        <ele>380.9</ele>
        <time>2023-11-10T17:32:35Z</time>
      </trkpt>
      <trkpt lat="48.68184" lon="7.14333">
        <ele>381.4</ele>
        <time>2023-11-10T17:32:42Z</time>
      </trkpt>
      <trkpt lat="48.68188" lon="7.14363">
        <ele>382</ele>
        <time>2023-11-10T17:32:50Z</time>
      </trkpt>
      <trkpt lat="48.68194" lon="7.14392">
        <ele>382.6</ele>
        <time>2023-11-10T17:32:58Z</time>
      </trkpt>
      <trkpt lat="48.6821" lon="7.14406">
        <ele>381.2</ele>
        <time>2023-11-10T17:33:06Z</time>
      </trkpt>
      <trkpt lat="48.68229" lon="7.14403">
        <ele>380.1</ele>
        <time>2023-11-10T17:33:16Z</time>
      </trkpt>
      <trkpt lat="48.68249" lon="7.14405">
        <ele>379.1</ele>
        <time>2023-11-10T17:33:25Z</time>
      </trkpt>
      <trkpt lat="48.68269" lon="7.14407">
        <ele>378.1</ele>
        <time>2023-11-10T17:33:32Z</time>
      </trkpt>
      <trkpt lat="48.68287" lon="7.14411">
        <ele>377.2</ele>
        <time>2023-11-10T17:33:40Z</time>
      </trkpt>
      <trkpt lat="48.68305" lon="7.14411">
        <ele>376.2</ele>
        <time>2023-11-10T17:33:46Z</time>
      </trkpt>
      <trkpt lat="48.68326" lon="7.14409">
        <ele>375.2</ele>
        <time>2023-11-10T17:33:53Z</time>
      </trkpt>
      <trkpt lat="48.68345" lon="7.14409">
        <ele>374.2</ele>
        <time>2023-11-10T17:34:00Z</time>
      </trkpt>
      <trkpt lat="48.68365" lon="7.1441">
        <ele>373.1</ele>
        <time>2023-11-10T17:34:08Z</time>
      </trkpt>
      <trkpt lat="48.68384" lon="7.1441">
        <ele>372.1</ele>
        <time>2023-11-10T17:34:17Z</time>
      </trkpt>
      <trkpt lat="48.68404" lon="7.14408">
        <ele>371.1</ele>
        <time>2023-11-10T17:34:26Z</time>
      </trkpt>
      <trkpt lat="48.68424" lon="7.14409">
        <ele>370.1</ele>
        <time>2023-11-10T17:34:34Z</time>
      </trkpt>
      <trkpt lat="48.68443" lon="7.14409">
        <ele>369.1</ele>
        <time>2023-11-10T17:34:42Z</time>
      </trkpt>
      <trkpt lat="48.68463" lon="7.14407">
        <ele>368.5</ele>
        <time>2023-11-10T17:34:51Z</time>
      </trkpt>
      <trkpt lat="48.68483" lon="7.14409">
        <ele>368.5</ele>
        <time>2023-11-10T17:35:01Z</time>
      </trkpt>
      <trkpt lat="48.68502" lon="7.14414">
        <ele>368.4</ele>
        <time>2023-11-10T17:35:07Z</time>
      </trkpt>
      <trkpt lat="48.6852" lon="7.14408">
        <ele>368.4</ele>
        <time>2023-11-10T17:35:14Z</time>
      </trkpt>
      <trkpt lat="48.68538" lon="7.14411">
        <ele>368.4</ele>
        <time>2023-11-10T17:35:21Z</time>
      </trkpt>
      <trkpt lat="48.68557" lon="7.14417">
        <ele>368.4</ele>
        <time>2023-11-10T17:35:27Z</time>
      </trkpt>
      <trkpt lat="48.68577" lon="7.14419">
        <ele>368.3</ele>
        <time>2023-11-10T17:35:36Z</time>
      </trkpt>
      <trkpt lat="48.68596" lon="7.1442">
        <ele>368.3</ele>
        <time>2023-11-10T17:35:43Z</time>
      </trkpt>
      <trkpt lat="48.68616" lon="7.1442">
        <ele>368.3</ele>
        <time>2023-11-10T17:35:51Z</time>
      </trkpt>
      <trkpt lat="48.68636" lon="7.14415">
        <ele>368.3</ele>
        <time>2023-11-10T17:35:58Z</time>
      </trkpt>
      <trkpt lat="48.68655" lon="7.14411">
        <ele>368.2</ele>
        <time>2023-11-10T17:36:07Z</time>
      </trkpt>
      <trkpt lat="48.68675" lon="7.14411">
        <ele>368.2</ele>
        <time>2023-11-10T17:36:15Z</time>
      </trkpt>
      <trkpt lat="48.6869" lon="7.14427">
        <ele>368.2</ele>
        <time>2023-11-10T17:36:23Z</time>
      </trkpt>
      <trkpt lat="48.68693" lon="7.14455">
        <ele>368.4</ele>
        <time>2023-11-10T17:36:30Z</time>
      </trkpt>
      <trkpt lat="48.68694" lon="7.14486">
        <ele>368.4</ele>
        <time>2023-11-10T17:36:38Z</time>
      </trkpt>
      <trkpt lat="48.68692" lon="7.14513">
        <ele>368.7</ele>
        <time>2023-11-10T17:36:45Z</time>
      </trkpt>
      <trkpt lat="48.68687" lon="7.14541">
        <ele>369.1</ele>
        <time>2023-11-10T17:36:53Z</time>
      </trkpt>
      <trkpt lat="48.68682" lon="7.14568">
        <ele>369.6</ele>
        <time>2023-11-10T17:37:01Z</time>
      </trkpt>
      <trkpt lat="48.68681" lon="7.14596">
        <ele>370.2</ele>
        <time>2023-11-10T17:37:10Z</time>
      </trkpt>
      <trkpt lat="48.68677" lon="7.14624">
        <ele>370.8</ele>
        <time>2023-11-10T17:37:18Z</time>
      </trkpt>
      <trkpt lat="48.68672" lon="7.14653">
        <ele>371.5</ele>
        <time>2023-11-10T17:37:26Z</time>
      </trkpt>
      <trkpt lat="48.68668" lon="7.1468">
        <ele>372.1</ele>
        <time>2023-11-10T17:37:33Z</time>
      </trkpt>
      <trkpt lat="48.68668" lon="7.14708">
        <ele>373</ele>
        <time>2023-11-10T17:37:40Z</time>
      </trkpt>
      <trkpt lat="48.68666" lon="7.14738">
        <ele>373.7</ele>
        <time>2023-11-10T17:37:49Z</time>
      </trkpt>
      <trkpt lat="48.68664" lon="7.14765">
        <ele>374.4</ele>
        <time>2023-11-10T17:37:57Z</time>
      </trkpt>
      <trkpt lat="48.68662" lon="7.14794">
        <ele>375.2</ele>
        <time>2023-11-10T17:38:05Z</time>
      </trkpt>
      <trkpt lat="48.68662" lon="7.14823">
        <ele>376</ele>
        <time>2023-11-10T17:38:15Z</time>
      </trkpt>
      <trkpt lat="48.68656" lon="7.1485">
        <ele>376.7</ele>
        <time>2023-11-10T17:38:23Z</time>
      </trkpt>
      <trkpt lat="48.68651" lon="7.14878">
        <ele>377.3</ele>
        <time>2023-11-10T17:38:30Z</time>
      </trkpt>
      <trkpt lat="48.68651" lon="7.14907">
        <ele>377.8</ele>
        <time>2023-11-10T17:38:37Z</time>
      </trkpt>
      <trkpt lat="48.68645" lon="7.14934">
        <ele>378.4</ele>
        <time>2023-11-10T17:38:45Z</time>
      </trkpt>
      <trkpt lat="48.6864" lon="7.14965">
        <ele>379.1</ele>
        <time>2023-11-10T17:38:54Z</time>
      </trkpt>
      <trkpt lat="48.68635" lon="7.14994">
        <ele>379.9</ele>
        <time>2023-11-10T17:39:02Z</time>
      </trkpt>
      <trkpt lat="48.68632" lon="7.15023">
        <ele>380.3</ele>
        <time>2023-11-10T17:39:09Z</time>
      </trkpt>
      <trkpt lat="48.68627" lon="7.15051">
        <ele>380.6</ele>
        <time>2023-11-10T17:39:17Z</time>
      </trkpt>
      <trkpt lat="48.68622" lon="7.15081">
        <ele>381</ele>
        <time>2023-11-10T17:39:26Z</time>
      </trkpt>
      <trkpt lat="48.68621" lon="7.1511">
        <ele>381.4</ele>
        <time>2023-11-10T17:39:34Z</time>
      </trkpt>
      <trkpt lat="48.68616" lon="7.15137">
        <ele>381.9</ele>
        <time>2023-11-10T17:39:42Z</time>
      </trkpt>
      <trkpt lat="48.68614" lon="7.15164">
        <ele>382.1</ele>
        <time>2023-11-10T17:39:49Z</time>
      </trkpt>
      <trkpt lat="48.6861" lon="7.15194">
        <ele>382.6</ele>
        <time>2023-11-10T17:39:58Z</time>
      </trkpt>
      <trkpt lat="48.68608" lon="7.15224">
        <ele>382.9</ele>
        <time>2023-11-10T17:40:06Z</time>
      </trkpt>
      <trkpt lat="48.68604" lon="7.15252">
        <ele>383.3</ele>
        <time>2023-11-10T17:40:13Z</time>
      </trkpt>
      <trkpt lat="48.68602" lon="7.15281">
        <ele>383.7</ele>
        <time>2023-11-10T17:40:21Z</time>
      </trkpt>
      <trkpt lat="48.68597" lon="7.15309">
        <ele>383.8</ele>
        <time>2023-11-10T17:40:29Z</time>
      </trkpt>
    </trkseg>
  </trk>
</gpx>